sensor_id;sensor_type;location;lat;lon;timestamp;P1;durP1;ratioP1;P2;durP2;ratioP2
25868;SDS011;13688;53.154;18.136;2023-07-08T00:00:25;3.12;;;1.87;;
25868;SDS011;13688;53.154;18.136;2023-07-08T00:05:52;4.90;;;2.00;;
25868;SDS011;13688;53.154;18.136;2023-07-08T00:11:15;3.15;;;2.12;;
25868;SDS011;13688;53.154;18.136;2023-07-08T00:16:39;4.95;;;2.33;;
25868;SDS011;13688;53.154;18.136;2023-07-08T00:22:04;2.77;;;1.80;;
25868;SDS011;13688;53.154;18.136;2023-07-08T00:27:29;4.87;;;1.87;;
25868;SDS011;13688;53.154;18.136;2023-07-08T00:32:52;3.83;;;2.08;;
25868;SDS011;13688;53.154;18.136;2023-07-08T00:38:23;5.25;;;2.00;;
25868;SDS011;13688;53.154;18.136;2023-07-08T00:43:51;3.35;;;2.00;;
25868;SDS011;13688;53.154;18.136;2023-07-08T00:55:07;3.92;;;1.87;;
25868;SDS011;13688;53.154;18.136;2023-07-08T01:00:30;3.12;;;1.95;;
25868;SDS011;13688;53.154;18.136;2023-07-08T01:05:54;3.10;;;2.20;;
25868;SDS011;13688;53.154;18.136;2023-07-08T01:11:19;4.58;;;2.40;;
25868;SDS011;13688;53.154;18.136;2023-07-08T01:16:42;8.90;;;2.40;;
25868;SDS011;13688;53.154;18.136;2023-07-08T01:22:07;4.45;;;2.10;;
25868;SDS011;13688;53.154;18.136;2023-07-08T01:27:32;3.35;;;2.25;;
25868;SDS011;13688;53.154;18.136;2023-07-08T01:32:59;2.50;;;2.00;;
25868;SDS011;13688;53.154;18.136;2023-07-08T01:38:29;4.37;;;2.42;;
25868;SDS011;13688;53.154;18.136;2023-07-08T01:43:51;3.08;;;2.08;;
25868;SDS011;13688;53.154;18.136;2023-07-08T01:49:14;3.12;;;2.37;;
25868;SDS011;13688;53.154;18.136;2023-07-08T01:54:38;3.58;;;2.37;;
25868;SDS011;13688;53.154;18.136;2023-07-08T02:00:06;6.20;;;2.50;;
25868;SDS011;13688;53.154;18.136;2023-07-08T02:05:30;4.15;;;2.33;;
25868;SDS011;13688;53.154;18.136;2023-07-08T02:10:54;6.42;;;2.50;;
25868;SDS011;13688;53.154;18.136;2023-07-08T02:16:16;6.87;;;2.35;;
25868;SDS011;13688;53.154;18.136;2023-07-08T02:21:39;6.70;;;2.80;;
25868;SDS011;13688;53.154;18.136;2023-07-08T02:27:02;7.50;;;2.55;;
25868;SDS011;13688;53.154;18.136;2023-07-08T02:32:24;4.00;;;2.45;;
25868;SDS011;13688;53.154;18.136;2023-07-08T02:37:48;4.85;;;2.50;;
25868;SDS011;13688;53.154;18.136;2023-07-08T02:43:11;4.15;;;2.85;;
25868;SDS011;13688;53.154;18.136;2023-07-08T02:48:34;3.87;;;2.37;;
25868;SDS011;13688;53.154;18.136;2023-07-08T02:53:56;4.73;;;2.17;;
25868;SDS011;13688;53.154;18.136;2023-07-08T02:59:19;6.15;;;2.75;;
25868;SDS011;13688;53.154;18.136;2023-07-08T03:04:42;6.25;;;3.40;;
25868;SDS011;13688;53.154;18.136;2023-07-08T03:10:07;6.75;;;2.70;;
25868;SDS011;13688;53.154;18.136;2023-07-08T03:15:30;3.37;;;2.45;;
25868;SDS011;13688;53.154;18.136;2023-07-08T03:20:55;3.45;;;2.50;;
25868;SDS011;13688;53.154;18.136;2023-07-08T03:26:22;6.53;;;3.02;;
25868;SDS011;13688;53.154;18.136;2023-07-08T03:31:45;5.17;;;2.60;;
25868;SDS011;13688;53.154;18.136;2023-07-08T03:37:08;4.67;;;2.52;;
25868;SDS011;13688;53.154;18.136;2023-07-08T03:42:30;4.78;;;3.08;;
25868;SDS011;13688;53.154;18.136;2023-07-08T03:47:53;4.62;;;2.65;;
25868;SDS011;13688;53.154;18.136;2023-07-08T03:53:16;3.95;;;2.80;;
25868;SDS011;13688;53.154;18.136;2023-07-08T03:58:38;3.77;;;2.80;;
25868;SDS011;13688;53.154;18.136;2023-07-08T04:04:01;6.78;;;3.15;;
25868;SDS011;13688;53.154;18.136;2023-07-08T04:09:25;4.37;;;3.08;;
25868;SDS011;13688;53.154;18.136;2023-07-08T04:14:49;5.67;;;3.45;;
25868;SDS011;13688;53.154;18.136;2023-07-08T04:20:13;6.90;;;3.75;;
25868;SDS011;13688;53.154;18.136;2023-07-08T04:25:36;7.97;;;3.90;;
25868;SDS011;13688;53.154;18.136;2023-07-08T04:30:59;4.55;;;3.30;;
25868;SDS011;13688;53.154;18.136;2023-07-08T04:36:21;9.33;;;4.37;;
25868;SDS011;13688;53.154;18.136;2023-07-08T04:41:44;7.35;;;3.72;;
25868;SDS011;13688;53.154;18.136;2023-07-08T04:47:07;9.65;;;5.00;;
25868;SDS011;13688;53.154;18.136;2023-07-08T04:52:31;7.83;;;4.17;;
25868;SDS011;13688;53.154;18.136;2023-07-08T04:57:53;8.08;;;4.40;;
25868;SDS011;13688;53.154;18.136;2023-07-08T05:03:15;7.22;;;4.87;;
25868;SDS011;13688;53.154;18.136;2023-07-08T05:08:38;11.40;;;4.50;;
25868;SDS011;13688;53.154;18.136;2023-07-08T05:14:01;7.97;;;4.53;;
25868;SDS011;13688;53.154;18.136;2023-07-08T05:19:23;11.88;;;5.40;;
25868;SDS011;13688;53.154;18.136;2023-07-08T05:24:47;8.43;;;5.55;;
25868;SDS011;13688;53.154;18.136;2023-07-08T05:30:12;8.45;;;5.50;;
25868;SDS011;13688;53.154;18.136;2023-07-08T05:35:35;11.70;;;5.20;;
25868;SDS011;13688;53.154;18.136;2023-07-08T05:40:57;17.60;;;5.47;;
25868;SDS011;13688;53.154;18.136;2023-07-08T05:46:20;8.58;;;5.00;;
25868;SDS011;13688;53.154;18.136;2023-07-08T05:51:44;10.38;;;5.20;;
25868;SDS011;13688;53.154;18.136;2023-07-08T05:57:08;13.78;;;5.17;;
25868;SDS011;13688;53.154;18.136;2023-07-08T06:02:31;10.65;;;4.75;;
25868;SDS011;13688;53.154;18.136;2023-07-08T06:07:54;10.85;;;5.25;;
25868;SDS011;13688;53.154;18.136;2023-07-08T06:13:17;10.88;;;4.83;;
25868;SDS011;13688;53.154;18.136;2023-07-08T06:18:40;9.58;;;4.85;;
25868;SDS011;13688;53.154;18.136;2023-07-08T06:24:03;7.95;;;4.53;;
25868;SDS011;13688;53.154;18.136;2023-07-08T06:29:25;8.13;;;4.53;;
25868;SDS011;13688;53.154;18.136;2023-07-08T06:34:49;7.92;;;4.87;;
25868;SDS011;13688;53.154;18.136;2023-07-08T06:40:12;6.55;;;3.62;;
25868;SDS011;13688;53.154;18.136;2023-07-08T06:45:35;12.15;;;4.25;;
25868;SDS011;13688;53.154;18.136;2023-07-08T06:50:59;7.67;;;3.50;;
25868;SDS011;13688;53.154;18.136;2023-07-08T06:56:22;10.50;;;3.27;;
25868;SDS011;13688;53.154;18.136;2023-07-08T07:01:45;4.97;;;3.20;;
25868;SDS011;13688;53.154;18.136;2023-07-08T07:07:09;4.95;;;2.67;;
25868;SDS011;13688;53.154;18.136;2023-07-08T07:12:32;4.08;;;2.80;;
25868;SDS011;13688;53.154;18.136;2023-07-08T07:17:54;6.28;;;2.75;;
25868;SDS011;13688;53.154;18.136;2023-07-08T07:23:18;4.83;;;2.62;;
25868;SDS011;13688;53.154;18.136;2023-07-08T07:28:40;4.42;;;2.30;;
25868;SDS011;13688;53.154;18.136;2023-07-08T07:34:10;3.22;;;2.12;;
25868;SDS011;13688;53.154;18.136;2023-07-08T07:39:33;4.30;;;2.50;;
25868;SDS011;13688;53.154;18.136;2023-07-08T07:44:57;4.05;;;2.25;;
25868;SDS011;13688;53.154;18.136;2023-07-08T07:50:21;5.08;;;2.45;;
25868;SDS011;13688;53.154;18.136;2023-07-08T07:55:46;4.42;;;2.33;;
25868;SDS011;13688;53.154;18.136;2023-07-08T08:01:13;6.42;;;2.30;;
25868;SDS011;13688;53.154;18.136;2023-07-08T08:06:36;3.08;;;2.35;;
25868;SDS011;13688;53.154;18.136;2023-07-08T08:12:00;3.55;;;2.20;;
25868;SDS011;13688;53.154;18.136;2023-07-08T08:17:26;3.62;;;2.52;;
25868;SDS011;13688;53.154;18.136;2023-07-08T08:22:51;2.58;;;2.05;;
25868;SDS011;13688;53.154;18.136;2023-07-08T08:28:14;3.77;;;2.20;;
25868;SDS011;13688;53.154;18.136;2023-07-08T08:33:37;3.98;;;2.58;;
25868;SDS011;13688;53.154;18.136;2023-07-08T08:39:03;4.87;;;2.45;;
25868;SDS011;13688;53.154;18.136;2023-07-08T08:44:31;3.33;;;2.20;;
25868;SDS011;13688;53.154;18.136;2023-07-08T08:50:00;2.77;;;2.10;;
25868;SDS011;13688;53.154;18.136;2023-07-08T08:55:40;5.85;;;2.10;;
25868;SDS011;13688;53.154;18.136;2023-07-08T09:01:12;6.78;;;2.40;;
25868;SDS011;13688;53.154;18.136;2023-07-08T09:06:35;3.58;;;2.40;;
25868;SDS011;13688;53.154;18.136;2023-07-08T09:12:33;8.15;;;2.17;;
25868;SDS011;13688;53.154;18.136;2023-07-08T09:17:38;3.95;;;2.12;;
25868;SDS011;13688;53.154;18.136;2023-07-08T09:28:38;4.35;;;1.92;;
25868;SDS011;13688;53.154;18.136;2023-07-08T09:34:09;3.70;;;1.85;;
25868;SDS011;13688;53.154;18.136;2023-07-08T09:39:35;12.45;;;2.15;;
25868;SDS011;13688;53.154;18.136;2023-07-08T09:45:02;5.40;;;2.20;;
25868;SDS011;13688;53.154;18.136;2023-07-08T09:50:28;3.90;;;1.80;;
25868;SDS011;13688;53.154;18.136;2023-07-08T09:55:53;3.02;;;1.98;;
25868;SDS011;13688;53.154;18.136;2023-07-08T10:01:21;2.60;;;1.82;;
25868;SDS011;13688;53.154;18.136;2023-07-08T10:06:42;3.08;;;1.90;;
25868;SDS011;13688;53.154;18.136;2023-07-08T10:12:06;6.03;;;2.30;;
25868;SDS011;13688;53.154;18.136;2023-07-08T10:17:30;4.03;;;1.85;;
25868;SDS011;13688;53.154;18.136;2023-07-08T10:23:04;3.05;;;1.77;;
25868;SDS011;13688;53.154;18.136;2023-07-08T10:28:43;4.33;;;2.33;;
25868;SDS011;13688;53.154;18.136;2023-07-08T10:40:21;3.62;;;2.30;;
25868;SDS011;13688;53.154;18.136;2023-07-08T10:51:47;3.62;;;2.15;;
25868;SDS011;13688;53.154;18.136;2023-07-08T11:09:29;4.45;;;2.33;;
25868;SDS011;13688;53.154;18.136;2023-07-08T11:15:06;3.65;;;2.22;;
25868;SDS011;13688;53.154;18.136;2023-07-08T11:20:38;3.45;;;2.00;;
25868;SDS011;13688;53.154;18.136;2023-07-08T11:26:18;6.20;;;2.45;;
25868;SDS011;13688;53.154;18.136;2023-07-08T11:31:48;4.33;;;2.00;;
25868;SDS011;13688;53.154;18.136;2023-07-08T11:37:11;4.08;;;2.30;;
25868;SDS011;13688;53.154;18.136;2023-07-08T11:42:54;2.70;;;2.00;;
25868;SDS011;13688;53.154;18.136;2023-07-08T11:48:22;5.22;;;2.47;;
25868;SDS011;13688;53.154;18.136;2023-07-08T11:59:46;4.07;;;2.20;;
25868;SDS011;13688;53.154;18.136;2023-07-08T12:05:18;5.23;;;2.43;;
25868;SDS011;13688;53.154;18.136;2023-07-08T12:10:52;3.70;;;2.27;;
25868;SDS011;13688;53.154;18.136;2023-07-08T12:16:17;6.05;;;2.50;;
25868;SDS011;13688;53.154;18.136;2023-07-08T12:21:42;2.90;;;2.17;;
25868;SDS011;13688;53.154;18.136;2023-07-08T12:27:04;2.53;;;2.07;;
25868;SDS011;13688;53.154;18.136;2023-07-08T12:32:32;3.22;;;2.40;;
25868;SDS011;13688;53.154;18.136;2023-07-08T12:37:54;3.52;;;2.47;;
25868;SDS011;13688;53.154;18.136;2023-07-08T12:43:23;4.78;;;2.35;;
25868;SDS011;13688;53.154;18.136;2023-07-08T12:48:46;3.05;;;1.87;;
25868;SDS011;13688;53.154;18.136;2023-07-08T12:54:08;3.55;;;2.52;;
25868;SDS011;13688;53.154;18.136;2023-07-08T12:59:31;4.28;;;2.27;;
25868;SDS011;13688;53.154;18.136;2023-07-08T13:04:55;3.20;;;2.15;;
25868;SDS011;13688;53.154;18.136;2023-07-08T13:10:21;2.65;;;2.12;;
25868;SDS011;13688;53.154;18.136;2023-07-08T13:15:45;3.85;;;2.20;;
25868;SDS011;13688;53.154;18.136;2023-07-08T13:21:10;3.83;;;2.47;;
25868;SDS011;13688;53.154;18.136;2023-07-08T13:26:35;4.20;;;2.30;;
25868;SDS011;13688;53.154;18.136;2023-07-08T13:32:03;3.60;;;2.40;;
25868;SDS011;13688;53.154;18.136;2023-07-08T13:37:27;2.30;;;2.10;;
25868;SDS011;13688;53.154;18.136;2023-07-08T13:42:53;4.08;;;2.42;;
25868;SDS011;13688;53.154;18.136;2023-07-08T13:48:27;3.77;;;2.58;;
25868;SDS011;13688;53.154;18.136;2023-07-08T13:53:52;4.40;;;2.62;;
25868;SDS011;13688;53.154;18.136;2023-07-08T13:59:22;2.72;;;2.27;;
25868;SDS011;13688;53.154;18.136;2023-07-08T14:04:45;3.63;;;2.30;;
25868;SDS011;13688;53.154;18.136;2023-07-08T14:10:10;3.87;;;2.50;;
25868;SDS011;13688;53.154;18.136;2023-07-08T14:15:33;3.98;;;2.47;;
25868;SDS011;13688;53.154;18.136;2023-07-08T14:20:56;3.80;;;2.47;;
25868;SDS011;13688;53.154;18.136;2023-07-08T14:26:18;3.85;;;2.50;;
25868;SDS011;13688;53.154;18.136;2023-07-08T14:37:38;4.12;;;2.42;;
25868;SDS011;13688;53.154;18.136;2023-07-08T14:43:04;7.35;;;2.45;;
25868;SDS011;13688;53.154;18.136;2023-07-08T14:48:36;4.22;;;2.33;;
25868;SDS011;13688;53.154;18.136;2023-07-08T14:53:59;2.40;;;2.20;;
25868;SDS011;13688;53.154;18.136;2023-07-08T14:59:23;4.17;;;2.37;;
25868;SDS011;13688;53.154;18.136;2023-07-08T15:04:47;4.53;;;2.50;;
25868;SDS011;13688;53.154;18.136;2023-07-08T15:10:10;2.30;;;2.10;;
25868;SDS011;13688;53.154;18.136;2023-07-08T15:15:35;2.83;;;2.33;;
25868;SDS011;13688;53.154;18.136;2023-07-08T15:20:57;3.33;;;2.02;;
25868;SDS011;13688;53.154;18.136;2023-07-08T15:26:21;4.45;;;2.33;;
25868;SDS011;13688;53.154;18.136;2023-07-08T15:31:45;3.77;;;2.50;;
25868;SDS011;13688;53.154;18.136;2023-07-08T15:37:11;2.75;;;2.40;;
25868;SDS011;13688;53.154;18.136;2023-07-08T15:42:34;2.58;;;2.37;;
25868;SDS011;13688;53.154;18.136;2023-07-08T15:47:59;3.00;;;2.22;;
25868;SDS011;13688;53.154;18.136;2023-07-08T15:53:24;5.33;;;2.30;;
25868;SDS011;13688;53.154;18.136;2023-07-08T15:58:47;3.83;;;2.25;;
25868;SDS011;13688;53.154;18.136;2023-07-08T16:04:25;3.62;;;2.20;;
25868;SDS011;13688;53.154;18.136;2023-07-08T16:09:49;3.17;;;2.50;;
25868;SDS011;13688;53.154;18.136;2023-07-08T16:15:16;2.75;;;2.08;;
25868;SDS011;13688;53.154;18.136;2023-07-08T16:20:40;5.22;;;2.55;;
25868;SDS011;13688;53.154;18.136;2023-07-08T16:26:04;3.37;;;2.60;;
25868;SDS011;13688;53.154;18.136;2023-07-08T16:31:28;3.13;;;2.30;;
25868;SDS011;13688;53.154;18.136;2023-07-08T16:36:50;5.20;;;2.37;;
25868;SDS011;13688;53.154;18.136;2023-07-08T16:42:14;4.47;;;2.40;;
25868;SDS011;13688;53.154;18.136;2023-07-08T16:47:37;3.20;;;2.70;;
25868;SDS011;13688;53.154;18.136;2023-07-08T16:53:09;4.27;;;2.50;;
25868;SDS011;13688;53.154;18.136;2023-07-08T16:58:29;2.75;;;2.30;;
25868;SDS011;13688;53.154;18.136;2023-07-08T17:03:52;3.08;;;2.27;;
25868;SDS011;13688;53.154;18.136;2023-07-08T17:09:15;3.75;;;2.50;;
25868;SDS011;13688;53.154;18.136;2023-07-08T17:14:38;6.33;;;2.85;;
25868;SDS011;13688;53.154;18.136;2023-07-08T17:20:06;3.00;;;2.17;;
25868;SDS011;13688;53.154;18.136;2023-07-08T17:25:28;3.07;;;1.90;;
25868;SDS011;13688;53.154;18.136;2023-07-08T17:30:51;6.20;;;2.10;;
25868;SDS011;13688;53.154;18.136;2023-07-08T17:36:15;3.72;;;1.92;;
25868;SDS011;13688;53.154;18.136;2023-07-08T17:41:43;4.20;;;2.08;;
25868;SDS011;13688;53.154;18.136;2023-07-08T17:47:08;4.67;;;3.10;;
25868;SDS011;13688;53.154;18.136;2023-07-08T17:52:32;4.03;;;1.90;;
25868;SDS011;13688;53.154;18.136;2023-07-08T17:57:55;4.72;;;2.10;;
25868;SDS011;13688;53.154;18.136;2023-07-08T18:03:20;6.30;;;2.15;;
25868;SDS011;13688;53.154;18.136;2023-07-08T18:08:43;6.08;;;2.20;;
25868;SDS011;13688;53.154;18.136;2023-07-08T18:14:06;6.10;;;2.80;;
25868;SDS011;13688;53.154;18.136;2023-07-08T18:19:28;7.05;;;2.50;;
25868;SDS011;13688;53.154;18.136;2023-07-08T18:24:52;3.77;;;1.98;;
25868;SDS011;13688;53.154;18.136;2023-07-08T18:30:17;7.83;;;2.83;;
25868;SDS011;13688;53.154;18.136;2023-07-08T18:35:44;8.53;;;2.30;;
25868;SDS011;13688;53.154;18.136;2023-07-08T18:41:19;5.62;;;2.42;;
25868;SDS011;13688;53.154;18.136;2023-07-08T18:46:45;5.42;;;2.92;;
25868;SDS011;13688;53.154;18.136;2023-07-08T18:52:09;4.30;;;2.25;;
25868;SDS011;13688;53.154;18.136;2023-07-08T18:57:33;6.45;;;5.42;;
25868;SDS011;13688;53.154;18.136;2023-07-08T19:02:56;7.28;;;3.02;;
25868;SDS011;13688;53.154;18.136;2023-07-08T19:08:26;4.50;;;2.58;;
25868;SDS011;13688;53.154;18.136;2023-07-08T19:13:50;3.10;;;2.30;;
25868;SDS011;13688;53.154;18.136;2023-07-08T19:19:16;4.42;;;2.45;;
25868;SDS011;13688;53.154;18.136;2023-07-08T19:24:40;7.78;;;2.42;;
25868;SDS011;13688;53.154;18.136;2023-07-08T19:30:04;5.22;;;2.42;;
25868;SDS011;13688;53.154;18.136;2023-07-08T19:35:39;5.28;;;2.42;;
25868;SDS011;13688;53.154;18.136;2023-07-08T19:41:00;4.47;;;1.80;;
25868;SDS011;13688;53.154;18.136;2023-07-08T19:46:25;7.40;;;2.30;;
25868;SDS011;13688;53.154;18.136;2023-07-08T19:51:47;5.25;;;2.42;;
25868;SDS011;13688;53.154;18.136;2023-07-08T19:57:10;6.12;;;2.40;;
25868;SDS011;13688;53.154;18.136;2023-07-08T20:02:34;6.55;;;2.55;;
25868;SDS011;13688;53.154;18.136;2023-07-08T20:08:00;5.37;;;2.27;;
25868;SDS011;13688;53.154;18.136;2023-07-08T20:13:30;5.12;;;2.02;;
25868;SDS011;13688;53.154;18.136;2023-07-08T20:18:54;6.55;;;3.08;;
25868;SDS011;13688;53.154;18.136;2023-07-08T20:24:21;4.72;;;2.90;;
25868;SDS011;13688;53.154;18.136;2023-07-08T20:29:44;3.87;;;2.27;;
25868;SDS011;13688;53.154;18.136;2023-07-08T20:35:07;4.03;;;2.33;;
25868;SDS011;13688;53.154;18.136;2023-07-08T20:40:35;5.12;;;1.90;;
25868;SDS011;13688;53.154;18.136;2023-07-08T20:45:59;4.12;;;1.80;;
25868;SDS011;13688;53.154;18.136;2023-07-08T20:51:43;5.47;;;2.10;;
25868;SDS011;13688;53.154;18.136;2023-07-08T20:57:10;4.40;;;2.23;;
25868;SDS011;13688;53.154;18.136;2023-07-08T21:02:34;6.53;;;1.77;;
25868;SDS011;13688;53.154;18.136;2023-07-08T21:07:58;4.87;;;2.45;;
25868;SDS011;13688;53.154;18.136;2023-07-08T21:13:24;5.40;;;1.77;;
25868;SDS011;13688;53.154;18.136;2023-07-08T21:18:47;4.87;;;1.83;;
25868;SDS011;13688;53.154;18.136;2023-07-08T21:24:12;6.80;;;2.10;;
25868;SDS011;13688;53.154;18.136;2023-07-08T21:29:37;7.20;;;2.17;;
25868;SDS011;13688;53.154;18.136;2023-07-08T21:34:59;5.67;;;2.07;;
25868;SDS011;13688;53.154;18.136;2023-07-08T21:40:29;5.13;;;1.83;;
25868;SDS011;13688;53.154;18.136;2023-07-08T21:45:55;3.87;;;2.20;;
25868;SDS011;13688;53.154;18.136;2023-07-08T21:51:28;2.47;;;1.60;;
25868;SDS011;13688;53.154;18.136;2023-07-08T21:56:49;3.83;;;1.87;;
25868;SDS011;13688;53.154;18.136;2023-07-08T22:02:13;4.25;;;1.75;;
25868;SDS011;13688;53.154;18.136;2023-07-08T22:07:37;2.85;;;1.75;;
25868;SDS011;13688;53.154;18.136;2023-07-08T22:13:00;3.52;;;1.90;;
25868;SDS011;13688;53.154;18.136;2023-07-08T22:18:38;6.05;;;1.90;;
25868;SDS011;13688;53.154;18.136;2023-07-08T22:24:05;3.33;;;1.70;;
25868;SDS011;13688;53.154;18.136;2023-07-08T22:29:28;3.12;;;1.55;;
25868;SDS011;13688;53.154;18.136;2023-07-08T22:34:51;3.52;;;1.72;;
25868;SDS011;13688;53.154;18.136;2023-07-08T22:40:14;4.23;;;2.00;;
25868;SDS011;13688;53.154;18.136;2023-07-08T22:45:37;2.50;;;1.80;;
25868;SDS011;13688;53.154;18.136;2023-07-08T22:51:00;2.87;;;1.82;;
25868;SDS011;13688;53.154;18.136;2023-07-08T22:56:25;3.10;;;1.87;;
25868;SDS011;13688;53.154;18.136;2023-07-08T23:01:48;4.10;;;1.90;;
25868;SDS011;13688;53.154;18.136;2023-07-08T23:07:10;5.00;;;2.00;;
25868;SDS011;13688;53.154;18.136;2023-07-08T23:12:34;3.08;;;1.92;;
25868;SDS011;13688;53.154;18.136;2023-07-08T23:17:57;2.20;;;1.45;;
25868;SDS011;13688;53.154;18.136;2023-07-08T23:23:23;4.42;;;1.65;;
25868;SDS011;13688;53.154;18.136;2023-07-08T23:28:47;5.85;;;1.75;;
25868;SDS011;13688;53.154;18.136;2023-07-08T23:34:12;3.30;;;1.77;;
25868;SDS011;13688;53.154;18.136;2023-07-08T23:39:35;5.58;;;2.10;;
25868;SDS011;13688;53.154;18.136;2023-07-08T23:44:57;4.70;;;2.25;;
25868;SDS011;13688;53.154;18.136;2023-07-08T23:50:23;3.98;;;2.12;;
25868;SDS011;13688;53.154;18.136;2023-07-08T23:55:46;3.72;;;2.08;;
